createdAt,value
2019-01-17T00:01:36.403Z,0.30
2019-01-17T00:04:26.744Z,0.30
2019-01-17T00:07:14.740Z,0.30
2019-01-17T00:10:03.337Z,0.30
2019-01-17T00:13:00.887Z,0.30
2019-01-17T00:16:01.179Z,0.30
2019-01-17T00:19:04.257Z,0.30
2019-01-17T00:21:49.600Z,0.30
2019-01-17T00:24:48.515Z,0.30
2019-01-17T00:27:40.365Z,0.30
2019-01-17T00:30:28.462Z,0.30
2019-01-17T00:33:26.253Z,0.30
2019-01-17T00:36:15.920Z,0.20
2019-01-17T00:39:20.273Z,0.20
2019-01-17T00:42:27.550Z,0.20
2019-01-17T00:45:25.818Z,0.20
2019-01-17T00:48:32.573Z,0.20
2019-01-17T00:51:19.711Z,0.20
2019-01-17T00:54:16.080Z,0.30
2019-01-17T00:57:03.510Z,0.30
2019-01-17T00:59:48.734Z,0.30
2019-01-17T01:02:39.040Z,0.30
2019-01-17T01:05:33.204Z,0.30
2019-01-17T01:08:36.926Z,0.20
2019-01-17T01:11:32.493Z,0.20
2019-01-17T01:14:21.325Z,0.20
2019-01-17T01:17:25.601Z,0.10
2019-01-17T01:20:12.804Z,0.10
2019-01-17T01:23:04.464Z,0.00
2019-01-17T01:25:51.767Z,0.00
2019-01-17T01:28:43.450Z,-0.10
2019-01-17T01:31:31.060Z,-0.10
2019-01-17T01:34:28.539Z,-0.10
2019-01-17T01:37:15.583Z,-0.20
2019-01-17T01:40:02.699Z,-0.20
2019-01-17T01:42:54.215Z,-0.30
2019-01-17T01:45:42.993Z,-0.30
2019-01-17T01:48:46.594Z,-0.30
2019-01-17T01:51:33.851Z,-0.40
2019-01-17T01:54:03.951Z,-0.50
2019-01-17T01:56:34.177Z,-0.50
2019-01-17T01:59:03.944Z,-0.50
2019-01-17T02:01:33.801Z,-0.60
2019-01-17T02:04:03.903Z,-0.50
2019-01-17T02:06:33.716Z,-0.50
2019-01-17T02:09:06.205Z,-0.60
2019-01-17T02:11:36.325Z,-0.60
2019-01-17T02:14:07.312Z,-0.60
2019-01-17T02:16:37.536Z,-0.50
2019-01-17T02:19:07.668Z,-0.50
2019-01-17T02:21:37.535Z,-0.30
2019-01-17T02:24:07.462Z,-0.20
2019-01-17T02:26:37.507Z,-0.20
2019-01-17T02:29:07.543Z,-0.20
2019-01-17T02:31:37.350Z,-0.20
2019-01-17T02:34:07.143Z,-0.20
2019-01-17T02:36:37.093Z,-0.20
2019-01-17T02:39:08.568Z,-0.20
2019-01-17T02:41:38.565Z,-0.30
2019-01-17T02:44:08.503Z,-0.30
2019-01-17T02:46:38.577Z,-0.30
2019-01-17T02:49:08.457Z,-0.30
2019-01-17T02:51:38.344Z,-0.30
2019-01-17T02:54:08.289Z,-0.30
2019-01-17T02:56:38.301Z,-0.20
2019-01-17T02:59:08.177Z,-0.20
2019-01-17T03:01:38.139Z,-0.20
2019-01-17T03:04:08.076Z,-0.10
2019-01-17T03:06:37.991Z,0.00
2019-01-17T03:09:08.870Z,0.20
2019-01-17T03:11:38.741Z,0.40
2019-01-17T03:14:08.573Z,0.70
2019-01-17T03:16:38.429Z,0.90
2019-01-17T03:19:08.292Z,1.30
2019-01-17T03:21:38.125Z,1.70
2019-01-17T03:24:08.107Z,2.00
2019-01-17T03:26:38.220Z,2.40
2019-01-17T03:29:08.030Z,2.70
2019-01-17T03:31:38.018Z,3.10
2019-01-17T03:34:07.800Z,3.30
2019-01-17T03:36:37.790Z,3.50
2019-01-17T03:39:08.210Z,3.80
2019-01-17T03:41:38.222Z,3.90
2019-01-17T03:44:08.134Z,4.10
2019-01-17T03:46:38.050Z,4.20
2019-01-17T03:49:07.830Z,4.30
2019-01-17T03:51:37.793Z,4.30
2019-01-17T03:54:07.589Z,4.20
2019-01-17T03:56:37.417Z,4.20
2019-01-17T03:59:07.234Z,4.20
2019-01-17T04:01:36.956Z,4.10
2019-01-17T04:04:06.814Z,4.20
2019-01-17T04:06:36.557Z,4.30
2019-01-17T04:09:07.874Z,4.30
2019-01-17T04:11:37.764Z,4.40
2019-01-17T04:14:07.507Z,4.50
2019-01-17T04:16:37.282Z,4.50
2019-01-17T04:19:07.137Z,4.50
2019-01-17T04:21:36.946Z,4.50
2019-01-17T04:24:06.773Z,4.50
2019-01-17T04:26:36.684Z,4.50
2019-01-17T04:29:06.444Z,4.50
2019-01-17T04:31:36.353Z,4.50
2019-01-17T04:34:06.261Z,4.60
2019-01-17T04:36:36.154Z,4.70
2019-01-17T04:39:08.036Z,4.60
2019-01-17T04:41:38.100Z,4.60
2019-01-17T04:44:07.831Z,4.60
2019-01-17T04:46:37.602Z,4.80
2019-01-17T04:49:07.393Z,4.80
2019-01-17T04:51:37.183Z,4.70
2019-01-17T04:54:06.916Z,4.70
2019-01-17T04:56:36.741Z,4.60
2019-01-17T04:59:06.554Z,4.50
2019-01-17T05:01:36.453Z,4.50
2019-01-17T05:04:06.256Z,4.40
2019-01-17T05:06:36.180Z,4.30
2019-01-17T05:09:09.722Z,4.30
2019-01-17T05:11:39.553Z,4.30
2019-01-17T05:14:09.329Z,4.30
2019-01-17T05:16:39.156Z,4.30
2019-01-17T05:19:08.936Z,4.40
2019-01-17T05:21:38.811Z,4.40
2019-01-17T05:24:08.563Z,4.50
2019-01-17T05:26:38.410Z,4.50
2019-01-17T05:29:08.355Z,4.50
2019-01-17T05:31:38.077Z,4.50
2019-01-17T05:34:08.037Z,4.40
2019-01-17T05:36:37.986Z,4.30
2019-01-17T05:39:08.785Z,4.20
2019-01-17T05:41:38.602Z,4.20
2019-01-17T05:44:08.423Z,4.10
2019-01-17T05:46:38.223Z,4.00
2019-01-17T05:49:08.333Z,4.00
2019-01-17T05:51:38.170Z,4.10
2019-01-17T05:54:09.093Z,4.10
2019-01-17T05:56:38.935Z,4.10
2019-01-17T05:59:08.781Z,4.00
2019-01-17T06:01:38.652Z,3.90
2019-01-17T06:04:08.474Z,3.90
2019-01-17T06:06:38.297Z,3.80
2019-01-17T06:09:10.095Z,3.90
2019-01-17T06:11:40.011Z,3.90
2019-01-17T06:14:09.801Z,3.80
2019-01-17T06:16:39.616Z,3.90
2019-01-17T06:19:09.451Z,3.90
2019-01-17T06:21:39.255Z,3.90
2019-01-17T06:24:09.094Z,3.90
2019-01-17T06:26:39.009Z,3.90
2019-01-17T06:29:08.853Z,3.90
2019-01-17T06:31:38.657Z,3.80
2019-01-17T06:34:08.376Z,3.70
2019-01-17T06:36:38.202Z,3.70
2019-01-17T06:39:09.158Z,3.70
2019-01-17T06:41:39.015Z,3.70
2019-01-17T06:44:08.797Z,3.60
2019-01-17T06:46:38.652Z,3.50
2019-01-17T06:49:08.465Z,3.60
2019-01-17T06:51:40.477Z,3.50
2019-01-17T06:54:10.304Z,3.50
2019-01-17T06:56:40.185Z,3.40
2019-01-17T06:59:10.003Z,3.30
2019-01-17T07:01:39.953Z,3.20
2019-01-17T07:04:09.837Z,3.20
2019-01-17T07:06:39.661Z,3.10
2019-01-17T07:09:10.258Z,3.10
2019-01-17T07:11:40.150Z,3.00
2019-01-17T07:14:09.941Z,2.90
2019-01-17T07:16:39.822Z,2.90
2019-01-17T07:19:09.581Z,2.80
2019-01-17T07:21:39.353Z,2.80
2019-01-17T07:24:09.266Z,2.70
2019-01-17T07:26:40.594Z,2.70
2019-01-17T07:29:10.371Z,2.80
2019-01-17T07:31:40.538Z,2.80
2019-01-17T07:34:10.341Z,2.90
2019-01-17T07:36:40.212Z,2.90
2019-01-17T07:39:10.045Z,3.10
2019-01-17T07:41:40.245Z,3.40
2019-01-17T07:44:10.137Z,3.60
2019-01-17T07:46:39.929Z,3.90
2019-01-17T07:49:09.805Z,4.30
2019-01-17T07:51:39.602Z,4.60
2019-01-17T07:54:09.394Z,4.90
2019-01-17T07:56:39.204Z,5.30
2019-01-17T07:59:09.241Z,5.70
2019-01-17T08:01:39.043Z,6.10
2019-01-17T08:04:08.818Z,6.40
2019-01-17T08:06:38.624Z,6.60
2019-01-17T08:09:10.501Z,6.90
2019-01-17T08:11:40.316Z,7.00
2019-01-17T08:14:10.183Z,7.20
2019-01-17T08:16:40.057Z,7.40
2019-01-17T08:19:09.854Z,7.50
2019-01-17T08:21:39.722Z,7.40
2019-01-17T08:24:09.594Z,7.50
2019-01-17T08:26:39.400Z,7.40
2019-01-17T08:29:09.230Z,7.20
2019-01-17T08:31:39.028Z,7.10
2019-01-17T08:34:08.805Z,6.90
2019-01-17T08:36:38.625Z,6.80
2019-01-17T08:39:09.718Z,6.70
2019-01-17T08:41:39.660Z,6.60
2019-01-17T08:44:09.411Z,6.60
2019-01-17T08:46:39.321Z,6.60
2019-01-17T08:49:09.271Z,6.80
2019-01-17T08:51:39.148Z,6.90
2019-01-17T08:54:09.054Z,7.10
2019-01-17T08:56:38.900Z,7.20
2019-01-17T08:59:08.706Z,7.30
2019-01-17T09:01:38.540Z,7.30
2019-01-17T09:04:08.464Z,7.30
2019-01-17T09:06:38.615Z,7.30
2019-01-17T09:09:10.288Z,7.40
2019-01-17T09:11:40.101Z,7.40
2019-01-17T09:14:10.000Z,7.60
2019-01-17T09:16:39.873Z,7.70
2019-01-17T09:19:09.880Z,7.80
2019-01-17T09:21:40.041Z,7.90
2019-01-17T09:24:09.901Z,8.00
2019-01-17T09:26:39.784Z,8.00
2019-01-17T09:29:09.660Z,7.90
2019-01-17T09:31:39.518Z,7.90
2019-01-17T09:34:09.360Z,7.80
2019-01-17T09:36:39.247Z,7.80
2019-01-17T09:39:10.203Z,7.90
2019-01-17T09:41:40.140Z,7.90
2019-01-17T09:44:10.132Z,7.90
2019-01-17T09:46:40.896Z,7.80
2019-01-17T09:49:10.821Z,7.90
2019-01-17T09:51:40.772Z,7.80
2019-01-17T09:54:10.674Z,7.90
2019-01-17T09:56:40.539Z,8.00
2019-01-17T09:59:11.398Z,7.90
2019-01-17T10:01:41.250Z,7.80
2019-01-17T10:04:11.042Z,7.80
2019-01-17T10:06:40.899Z,7.90
2019-01-17T10:09:10.741Z,7.90
2019-01-17T10:11:40.520Z,7.80
2019-01-17T10:14:10.365Z,7.90
2019-01-17T10:16:50.495Z,8.00
2019-01-17T10:20:06.065Z,8.00
2019-01-17T10:22:58.365Z,8.00
2019-01-17T10:26:23.717Z,8.10
2019-01-17T10:29:30.192Z,8.10
2019-01-17T10:32:47.245Z,8.10
2019-01-17T10:35:35.584Z,8.00
2019-01-17T10:38:23.372Z,8.00
2019-01-17T10:41:45.731Z,8.00
2019-01-17T10:44:49.594Z,8.10
2019-01-17T10:48:21.198Z,8.00
2019-01-17T10:51:19.902Z,8.10
2019-01-17T10:54:25.333Z,8.00
2019-01-17T10:57:13.638Z,8.00
2019-01-17T11:00:10.829Z,8.10
2019-01-17T11:03:15.145Z,8.20
2019-01-17T11:08:30.326Z,8.20
2019-01-17T11:14:10.164Z,8.50
2019-01-17T11:16:51.986Z,8.60
2019-01-17T11:19:32.979Z,8.60
2019-01-17T11:22:14.494Z,8.60
2019-01-17T11:24:56.002Z,8.50
2019-01-17T11:28:03.775Z,8.30
2019-01-17T11:30:59.317Z,8.30
2019-01-17T11:33:51.090Z,8.30
2019-01-17T11:36:59.066Z,8.40
2019-01-17T11:40:06.838Z,8.40
2019-01-17T11:42:47.914Z,8.40
2019-01-17T11:48:13.629Z,8.30
2019-01-17T11:50:55.310Z,8.30
2019-01-17T11:53:36.859Z,8.30
2019-01-17T11:56:18.342Z,8.30
2019-01-17T11:59:11.531Z,8.20
2019-01-17T12:02:19.305Z,8.20
2019-01-17T12:05:08.461Z,8.30
2019-01-17T12:07:57.258Z,8.20
2019-01-17T12:10:27.124Z,8.20
2019-01-17T12:13:17.524Z,8.20
2019-01-17T12:16:06.773Z,8.20
2019-01-17T12:18:55.551Z,8.30
2019-01-17T12:21:44.486Z,8.20
2019-01-17T12:24:33.241Z,8.10
2019-01-17T12:27:22.038Z,8.00
2019-01-17T12:30:12.465Z,8.10
2019-01-17T12:33:01.227Z,8.00
2019-01-17T12:35:50.009Z,8.00
2019-01-17T12:38:19.850Z,7.90
2019-01-17T12:40:49.657Z,8.00
2019-01-17T12:43:38.465Z,7.90
2019-01-17T12:46:27.270Z,7.80
2019-01-17T12:49:16.046Z,7.80
2019-01-17T12:52:05.099Z,7.70
2019-01-17T12:54:53.849Z,7.60
2019-01-17T12:57:23.699Z,7.60
2019-01-17T13:00:14.272Z,7.70
2019-01-17T13:03:03.138Z,7.60
2019-01-17T13:05:51.989Z,7.60
2019-01-17T13:08:40.749Z,7.50
2019-01-17T13:11:29.528Z,7.50
2019-01-17T13:14:18.261Z,7.50
2019-01-17T13:17:07.022Z,7.40
2019-01-17T13:19:55.819Z,7.40
2019-01-17T13:22:44.739Z,7.40
2019-01-17T13:25:33.417Z,7.30
2019-01-17T13:28:22.204Z,7.20
2019-01-17T13:31:11.088Z,7.10
2019-01-17T13:33:40.870Z,7.00
2019-01-17T13:36:21.883Z,7.00
2019-01-17T13:39:03.584Z,7.00
2019-01-17T13:41:44.525Z,6.90
2019-01-17T13:44:26.142Z,6.90
2019-01-17T13:47:07.261Z,6.80
2019-01-17T13:49:49.100Z,6.80
2019-01-17T13:52:30.702Z,6.70
2019-01-17T13:55:12.184Z,6.70
2019-01-17T13:57:53.767Z,6.60
2019-01-17T14:00:34.849Z,6.50
2019-01-17T14:03:16.420Z,6.50
2019-01-17T14:05:57.644Z,6.60
2019-01-17T14:11:21.366Z,6.40
2019-01-17T14:14:02.889Z,6.40
2019-01-17T14:16:44.581Z,6.50
2019-01-17T14:19:26.068Z,6.30
2019-01-17T14:21:55.889Z,6.30
2019-01-17T14:24:44.688Z,6.30
2019-01-17T14:27:33.388Z,6.30
2019-01-17T14:30:23.164Z,6.20
2019-01-17T14:33:12.500Z,6.20
2019-01-17T14:36:01.254Z,6.20
2019-01-17T14:38:31.144Z,6.10
2019-01-17T14:41:20.116Z,6.10
2019-01-17T14:44:09.100Z,6.20
2019-01-17T14:46:57.819Z,6.10
2019-01-17T14:49:46.648Z,6.10
2019-01-17T14:52:35.887Z,6.00
2019-01-17T14:55:24.956Z,6.00
2019-01-17T15:01:01.832Z,6.00
2019-01-17T15:03:50.518Z,5.90
2019-01-17T15:06:39.421Z,5.80
2019-01-17T15:09:28.345Z,5.90
2019-01-17T15:12:17.101Z,5.80
2019-01-17T15:15:06.588Z,5.70
2019-01-17T15:17:55.431Z,5.70
2019-01-17T15:20:44.437Z,5.60
2019-01-17T15:23:14.402Z,5.60
2019-01-17T15:25:44.338Z,5.60
2019-01-17T15:28:14.280Z,5.60
2019-01-17T15:31:03.115Z,5.60
2019-01-17T15:33:52.955Z,5.70
2019-01-17T15:36:41.763Z,5.60
2019-01-17T15:39:30.749Z,5.60
2019-01-17T15:42:19.596Z,5.60
2019-01-17T15:45:10.424Z,5.60
2019-01-17T15:47:59.194Z,5.60
2019-01-17T15:50:48.135Z,5.60
2019-01-17T15:53:36.915Z,5.70
2019-01-17T15:56:25.706Z,5.60
2019-01-17T15:59:14.579Z,5.60
2019-01-17T16:02:03.363Z,5.60
2019-01-17T16:04:52.113Z,5.50
2019-01-17T16:07:40.849Z,5.40
2019-01-17T16:10:29.668Z,5.30
2019-01-17T16:13:18.418Z,5.30
2019-01-17T16:16:07.251Z,5.20
2019-01-17T16:18:56.076Z,5.20
2019-01-17T16:21:37.642Z,5.30
2019-01-17T16:24:19.141Z,5.30
2019-01-17T16:27:00.563Z,5.30
2019-01-17T16:29:41.939Z,5.30
2019-01-17T16:32:23.010Z,5.30
2019-01-17T16:35:04.341Z,5.20
2019-01-17T16:37:45.712Z,5.20
2019-01-17T16:40:27.109Z,5.20
2019-01-17T16:42:57.180Z,5.20
2019-01-17T16:45:45.907Z,5.20
2019-01-17T16:48:53.522Z,5.20
2019-01-17T16:55:11.186Z,5.30
2019-01-17T16:58:00.037Z,5.20
2019-01-17T17:00:48.952Z,5.20
2019-01-17T17:03:37.711Z,5.20
2019-01-17T17:06:26.506Z,5.20
2019-01-17T17:08:56.354Z,5.20
2019-01-17T17:11:45.251Z,5.10
2019-01-17T17:14:34.005Z,5.10
2019-01-17T17:17:23.062Z,5.10
2019-01-17T17:20:13.189Z,5.10
2019-01-17T17:23:01.978Z,5.10
2019-01-17T17:25:50.745Z,5.10
2019-01-17T17:28:39.818Z,5.10
2019-01-17T17:31:28.567Z,5.10
2019-01-17T17:34:17.309Z,5.00
2019-01-17T17:37:00.378Z,5.00
2019-01-17T17:39:41.938Z,5.00
2019-01-17T17:42:23.309Z,4.90
2019-01-17T17:44:53.145Z,4.90
2019-01-17T17:47:41.965Z,4.90
2019-01-17T17:50:31.020Z,4.80
2019-01-17T17:53:19.923Z,4.80
2019-01-17T17:56:08.794Z,4.70
2019-01-17T17:58:58.015Z,4.80
2019-01-17T18:05:00.733Z,4.70
2019-01-17T18:07:49.471Z,4.80
2019-01-17T18:10:38.213Z,4.70
2019-01-17T18:13:27.477Z,4.70
2019-01-17T18:16:16.218Z,4.70
2019-01-17T18:19:04.968Z,4.70
2019-01-17T18:21:34.985Z,4.70
2019-01-17T18:24:23.798Z,4.60
2019-01-17T18:27:12.615Z,4.60
2019-01-17T18:30:01.352Z,4.70
2019-01-17T18:32:42.782Z,4.50
2019-01-17T18:35:24.190Z,4.70
2019-01-17T18:40:47.873Z,4.60
2019-01-17T18:43:29.238Z,4.60
2019-01-17T18:46:10.821Z,4.60
2019-01-17T18:52:04.601Z,4.60
2019-01-17T18:54:46.312Z,4.50
2019-01-17T18:57:27.616Z,4.50
2019-01-17T19:00:10.735Z,4.50
2019-01-17T19:02:52.032Z,4.50
2019-01-17T19:05:33.685Z,4.60
2019-01-17T19:08:18.438Z,4.50
2019-01-17T19:13:33.544Z,4.40
2019-01-17T19:16:22.631Z,4.50
2019-01-17T19:19:11.847Z,4.40
2019-01-17T19:21:42.140Z,4.40
2019-01-17T19:24:31.368Z,4.40
2019-01-17T19:27:20.442Z,4.30
2019-01-17T19:29:50.766Z,4.30
2019-01-17T19:32:32.117Z,4.30
2019-01-17T19:35:17.467Z,4.30
2019-01-17T19:40:41.737Z,4.30
2019-01-17T19:46:08.467Z,4.30
2019-01-17T19:48:49.892Z,4.20
2019-01-17T19:51:31.626Z,4.10
2019-01-17T19:54:14.406Z,4.10
2019-01-17T19:56:55.836Z,4.10
2019-01-17T20:02:24.068Z,4.10
2019-01-17T20:05:05.445Z,4.10
2019-01-17T20:07:36.081Z,4.10
2019-01-17T20:10:26.283Z,4.00
2019-01-17T20:13:16.525Z,4.00
2019-01-17T20:16:05.489Z,4.00
2019-01-17T20:18:54.516Z,4.00
2019-01-17T20:21:43.438Z,4.00
2019-01-17T20:24:32.644Z,3.90
2019-01-17T20:27:16.476Z,4.00
2019-01-17T20:29:57.586Z,3.90
2019-01-17T20:32:39.215Z,4.00
2019-01-17T20:35:20.680Z,4.00
2019-01-17T20:38:02.687Z,3.90
2019-01-17T20:40:44.134Z,3.90
2019-01-17T20:43:25.994Z,3.90
2019-01-17T20:46:07.520Z,3.90
2019-01-17T20:48:49.207Z,3.80
2019-01-17T20:51:30.695Z,3.80
2019-01-17T20:54:12.237Z,3.80
2019-01-17T20:59:52.753Z,3.80
2019-01-17T21:02:34.108Z,3.80
2019-01-17T21:05:15.372Z,3.80
2019-01-17T21:07:56.704Z,3.80
2019-01-17T21:10:26.924Z,3.80
2019-01-17T21:13:15.791Z,3.70
2019-01-17T21:16:04.636Z,3.70
2019-01-17T21:18:53.414Z,3.70
2019-01-17T21:21:42.315Z,3.70
2019-01-17T21:24:23.997Z,3.60
2019-01-17T21:27:05.232Z,3.70
2019-01-17T21:29:46.049Z,3.70
2019-01-17T21:32:27.547Z,3.70
2019-01-17T21:35:09.614Z,3.70
2019-01-17T21:37:50.809Z,3.70
2019-01-17T21:40:32.553Z,3.70
2019-01-17T21:43:14.148Z,3.80
2019-01-17T21:45:56.647Z,3.70
2019-01-17T21:48:38.354Z,3.70
2019-01-17T21:51:19.778Z,3.70
2019-01-17T21:54:01.413Z,3.70
2019-01-17T21:56:43.104Z,3.70
2019-01-17T21:59:27.581Z,3.70
2019-01-17T22:02:09.075Z,3.60
2019-01-17T22:04:50.610Z,3.60
2019-01-17T22:07:21.364Z,3.50
2019-01-17T22:10:11.264Z,3.50
2019-01-17T22:13:00.524Z,3.50
2019-01-17T22:15:49.620Z,3.50
2019-01-17T22:18:39.059Z,3.40
2019-01-17T22:21:28.209Z,3.40
2019-01-17T22:24:17.821Z,3.40
2019-01-17T22:26:47.980Z,3.30
2019-01-17T22:29:18.651Z,3.20
2019-01-17T22:32:07.897Z,3.10
2019-01-17T22:34:49.658Z,3.10
2019-01-17T22:37:30.944Z,3.00
2019-01-17T22:40:12.588Z,2.90
2019-01-17T22:45:36.423Z,2.80
2019-01-17T22:48:17.782Z,2.70
2019-01-17T22:50:59.044Z,2.70
2019-01-17T22:53:40.706Z,2.70
2019-01-17T22:56:50.255Z,2.70
2019-01-17T22:59:39.402Z,2.70
2019-01-17T23:02:28.414Z,2.60
2019-01-17T23:05:17.148Z,2.60
2019-01-17T23:08:06.225Z,2.60
2019-01-17T23:10:54.997Z,2.60
2019-01-17T23:13:43.826Z,2.60
2019-01-17T23:16:32.678Z,2.60
2019-01-17T23:19:02.600Z,2.60
2019-01-17T23:21:51.341Z,2.60
2019-01-17T23:24:40.145Z,2.50
2019-01-17T23:27:28.926Z,2.60
2019-01-17T23:30:17.749Z,2.50
2019-01-17T23:32:58.994Z,2.50
2019-01-17T23:35:40.511Z,2.50
2019-01-17T23:38:21.740Z,2.40
2019-01-17T23:41:03.277Z,2.40
2019-01-17T23:43:46.053Z,2.30
2019-01-17T23:46:27.605Z,2.30
2019-01-17T23:49:09.210Z,2.30
2019-01-17T23:51:50.754Z,2.30
2019-01-17T23:54:32.458Z,2.40
2019-01-17T23:57:02.381Z,2.50
2019-01-17T23:59:51.097Z,2.50
